sensor_id;sensor_type;location;lat;lon;timestamp;P1;durP1;ratioP1;P2;durP2;ratioP2
4686;SDS011;2357;47.316;-1.348;2022-10-16T00:01:11;0.80;;;0.80;;
4686;SDS011;2357;47.316;-1.348;2022-10-16T00:03:40;2.27;;;0.67;;
4686;SDS011;2357;47.316;-1.348;2022-10-16T00:06:06;1.50;;;0.70;;
4686;SDS011;2357;47.316;-1.348;2022-10-16T00:08:33;1.43;;;0.97;;
4686;SDS011;2357;47.316;-1.348;2022-10-16T00:11:00;0.90;;;0.90;;
4686;SDS011;2357;47.316;-1.348;2022-10-16T00:13:30;1.93;;;0.83;;
4686;SDS011;2357;47.316;-1.348;2022-10-16T00:15:57;2.80;;;0.77;;
4686;SDS011;2357;47.316;-1.348;2022-10-16T00:18:24;1.10;;;0.70;;
4686;SDS011;2357;47.316;-1.348;2022-10-16T00:20:50;3.00;;;0.80;;
4686;SDS011;2357;47.316;-1.348;2022-10-16T00:23:16;1.70;;;1.03;;
4686;SDS011;2357;47.316;-1.348;2022-10-16T00:25:41;1.17;;;0.97;;
4686;SDS011;2357;47.316;-1.348;2022-10-16T00:28:07;0.73;;;0.73;;
4686;SDS011;2357;47.316;-1.348;2022-10-16T00:30:33;0.80;;;0.80;;
4686;SDS011;2357;47.316;-1.348;2022-10-16T00:33:02;3.90;;;0.97;;
4686;SDS011;2357;47.316;-1.348;2022-10-16T00:35:27;2.43;;;0.93;;
4686;SDS011;2357;47.316;-1.348;2022-10-16T00:37:54;1.20;;;1.10;;
4686;SDS011;2357;47.316;-1.348;2022-10-16T00:40:19;1.30;;;0.97;;
4686;SDS011;2357;47.316;-1.348;2022-10-16T00:42:45;1.30;;;1.30;;
4686;SDS011;2357;47.316;-1.348;2022-10-16T00:45:11;1.33;;;1.23;;
4686;SDS011;2357;47.316;-1.348;2022-10-16T00:47:37;1.90;;;1.07;;
4686;SDS011;2357;47.316;-1.348;2022-10-16T00:50:09;3.33;;;1.10;;
4686;SDS011;2357;47.316;-1.348;2022-10-16T00:52:46;0.80;;;0.80;;
4686;SDS011;2357;47.316;-1.348;2022-10-16T00:55:13;5.27;;;0.90;;
4686;SDS011;2357;47.316;-1.348;2022-10-16T00:57:39;3.37;;;1.30;;
4686;SDS011;2357;47.316;-1.348;2022-10-16T01:00:06;6.07;;;1.30;;
4686;SDS011;2357;47.316;-1.348;2022-10-16T01:02:34;1.10;;;1.00;;
4686;SDS011;2357;47.316;-1.348;2022-10-16T01:04:59;1.20;;;1.10;;
4686;SDS011;2357;47.316;-1.348;2022-10-16T01:07:45;0.90;;;0.80;;
4686;SDS011;2357;47.316;-1.348;2022-10-16T01:10:35;2.30;;;1.10;;
4686;SDS011;2357;47.316;-1.348;2022-10-16T01:13:21;3.70;;;1.10;;
4686;SDS011;2357;47.316;-1.348;2022-10-16T01:16:18;1.73;;;1.07;;
4686;SDS011;2357;47.316;-1.348;2022-10-16T01:19:09;1.20;;;1.10;;
4686;SDS011;2357;47.316;-1.348;2022-10-16T01:21:42;8.43;;;2.07;;
4686;SDS011;2357;47.316;-1.348;2022-10-16T01:24:37;1.90;;;1.00;;
4686;SDS011;2357;47.316;-1.348;2022-10-16T01:30:01;9.83;;;1.53;;
4686;SDS011;2357;47.316;-1.348;2022-10-16T01:32:38;3.03;;;1.20;;
4686;SDS011;2357;47.316;-1.348;2022-10-16T01:37:43;2.97;;;1.00;;
4686;SDS011;2357;47.316;-1.348;2022-10-16T01:40:16;2.73;;;1.07;;
4686;SDS011;2357;47.316;-1.348;2022-10-16T01:42:46;1.23;;;1.23;;
4686;SDS011;2357;47.316;-1.348;2022-10-16T01:45:18;1.00;;;0.90;;
4686;SDS011;2357;47.316;-1.348;2022-10-16T01:47:44;1.77;;;1.00;;
4686;SDS011;2357;47.316;-1.348;2022-10-16T01:50:12;5.77;;;1.30;;
4686;SDS011;2357;47.316;-1.348;2022-10-16T01:52:42;3.53;;;1.13;;
4686;SDS011;2357;47.316;-1.348;2022-10-16T01:55:10;1.70;;;1.10;;
4686;SDS011;2357;47.316;-1.348;2022-10-16T01:57:39;1.07;;;0.90;;
4686;SDS011;2357;47.316;-1.348;2022-10-16T02:00:10;1.90;;;1.17;;
4686;SDS011;2357;47.316;-1.348;2022-10-16T02:02:38;1.00;;;1.00;;
4686;SDS011;2357;47.316;-1.348;2022-10-16T02:05:15;1.33;;;1.23;;
4686;SDS011;2357;47.316;-1.348;2022-10-16T02:07:50;4.33;;;1.30;;
4686;SDS011;2357;47.316;-1.348;2022-10-16T02:10:16;1.43;;;1.23;;
4686;SDS011;2357;47.316;-1.348;2022-10-16T02:12:44;1.60;;;1.00;;
4686;SDS011;2357;47.316;-1.348;2022-10-16T02:15:15;2.73;;;0.90;;
4686;SDS011;2357;47.316;-1.348;2022-10-16T02:17:40;1.20;;;1.10;;
4686;SDS011;2357;47.316;-1.348;2022-10-16T02:20:06;0.80;;;0.80;;
4686;SDS011;2357;47.316;-1.348;2022-10-16T02:22:36;0.90;;;0.90;;
4686;SDS011;2357;47.316;-1.348;2022-10-16T02:25:13;3.17;;;1.10;;
4686;SDS011;2357;47.316;-1.348;2022-10-16T02:30:32;3.13;;;1.37;;
4686;SDS011;2357;47.316;-1.348;2022-10-16T02:33:09;1.60;;;1.37;;
4686;SDS011;2357;47.316;-1.348;2022-10-16T02:35:38;3.00;;;1.70;;
4686;SDS011;2357;47.316;-1.348;2022-10-16T02:38:04;1.10;;;1.10;;
4686;SDS011;2357;47.316;-1.348;2022-10-16T02:40:31;1.53;;;1.27;;
4686;SDS011;2357;47.316;-1.348;2022-10-16T02:42:57;1.60;;;1.50;;
4686;SDS011;2357;47.316;-1.348;2022-10-16T02:45:23;3.10;;;1.43;;
4686;SDS011;2357;47.316;-1.348;2022-10-16T02:47:49;1.67;;;1.57;;
4686;SDS011;2357;47.316;-1.348;2022-10-16T02:50:14;1.50;;;1.40;;
4686;SDS011;2357;47.316;-1.348;2022-10-16T02:52:41;5.10;;;1.40;;
4686;SDS011;2357;47.316;-1.348;2022-10-16T02:55:06;1.30;;;1.30;;
4686;SDS011;2357;47.316;-1.348;2022-10-16T02:57:32;4.57;;;2.50;;
4686;SDS011;2357;47.316;-1.348;2022-10-16T02:59:58;4.17;;;2.03;;
4686;SDS011;2357;47.316;-1.348;2022-10-16T03:02:24;1.57;;;1.23;;
4686;SDS011;2357;47.316;-1.348;2022-10-16T03:04:49;5.13;;;1.23;;
4686;SDS011;2357;47.316;-1.348;2022-10-16T03:07:15;1.20;;;1.20;;
4686;SDS011;2357;47.316;-1.348;2022-10-16T03:09:41;2.03;;;1.30;;
4686;SDS011;2357;47.316;-1.348;2022-10-16T03:12:06;3.90;;;1.47;;
4686;SDS011;2357;47.316;-1.348;2022-10-16T03:14:32;7.67;;;1.80;;
4686;SDS011;2357;47.316;-1.348;2022-10-16T03:16:58;1.20;;;1.20;;
4686;SDS011;2357;47.316;-1.348;2022-10-16T03:19:24;1.57;;;1.47;;
4686;SDS011;2357;47.316;-1.348;2022-10-16T03:21:49;1.37;;;1.20;;
4686;SDS011;2357;47.316;-1.348;2022-10-16T03:24:15;1.37;;;1.27;;
4686;SDS011;2357;47.316;-1.348;2022-10-16T03:26:41;1.40;;;1.40;;
4686;SDS011;2357;47.316;-1.348;2022-10-16T03:29:06;2.60;;;1.43;;
4686;SDS011;2357;47.316;-1.348;2022-10-16T03:31:32;1.57;;;1.47;;
4686;SDS011;2357;47.316;-1.348;2022-10-16T03:33:58;3.80;;;1.47;;
4686;SDS011;2357;47.316;-1.348;2022-10-16T03:36:24;1.40;;;1.30;;
4686;SDS011;2357;47.316;-1.348;2022-10-16T03:38:49;6.07;;;2.10;;
4686;SDS011;2357;47.316;-1.348;2022-10-16T03:41:15;2.83;;;1.40;;
4686;SDS011;2357;47.316;-1.348;2022-10-16T03:43:41;1.80;;;1.30;;
4686;SDS011;2357;47.316;-1.348;2022-10-16T03:46:06;1.93;;;1.63;;
4686;SDS011;2357;47.316;-1.348;2022-10-16T03:48:32;4.10;;;1.30;;
4686;SDS011;2357;47.316;-1.348;2022-10-16T03:50:58;3.00;;;1.37;;
4686;SDS011;2357;47.316;-1.348;2022-10-16T03:53:23;1.10;;;1.00;;
4686;SDS011;2357;47.316;-1.348;2022-10-16T03:55:49;1.30;;;1.30;;
4686;SDS011;2357;47.316;-1.348;2022-10-16T03:58:15;3.77;;;1.33;;
4686;SDS011;2357;47.316;-1.348;2022-10-16T04:00:41;6.23;;;1.30;;
4686;SDS011;2357;47.316;-1.348;2022-10-16T04:03:08;3.10;;;1.73;;
4686;SDS011;2357;47.316;-1.348;2022-10-16T04:05:34;2.13;;;1.37;;
4686;SDS011;2357;47.316;-1.348;2022-10-16T04:08:00;2.40;;;1.77;;
4686;SDS011;2357;47.316;-1.348;2022-10-16T04:10:25;2.50;;;1.30;;
4686;SDS011;2357;47.316;-1.348;2022-10-16T04:12:51;1.17;;;1.10;;
4686;SDS011;2357;47.316;-1.348;2022-10-16T04:15:17;2.63;;;1.10;;
4686;SDS011;2357;47.316;-1.348;2022-10-16T04:17:42;1.60;;;1.50;;
4686;SDS011;2357;47.316;-1.348;2022-10-16T04:20:08;1.33;;;1.33;;
4686;SDS011;2357;47.316;-1.348;2022-10-16T04:22:34;1.63;;;1.53;;
4686;SDS011;2357;47.316;-1.348;2022-10-16T04:24:59;1.47;;;1.37;;
4686;SDS011;2357;47.316;-1.348;2022-10-16T04:27:25;3.60;;;1.30;;
4686;SDS011;2357;47.316;-1.348;2022-10-16T04:29:50;1.80;;;1.47;;
4686;SDS011;2357;47.316;-1.348;2022-10-16T04:32:16;3.13;;;1.50;;
4686;SDS011;2357;47.316;-1.348;2022-10-16T04:34:42;1.30;;;1.30;;
4686;SDS011;2357;47.316;-1.348;2022-10-16T04:37:07;1.23;;;1.23;;
4686;SDS011;2357;47.316;-1.348;2022-10-16T04:39:33;1.40;;;1.40;;
4686;SDS011;2357;47.316;-1.348;2022-10-16T04:41:59;1.57;;;1.47;;
4686;SDS011;2357;47.316;-1.348;2022-10-16T04:44:25;1.93;;;1.60;;
4686;SDS011;2357;47.316;-1.348;2022-10-16T04:46:50;3.13;;;1.43;;
4686;SDS011;2357;47.316;-1.348;2022-10-16T04:49:16;2.30;;;2.20;;
4686;SDS011;2357;47.316;-1.348;2022-10-16T04:51:42;1.83;;;1.37;;
4686;SDS011;2357;47.316;-1.348;2022-10-16T04:54:08;2.57;;;1.63;;
4686;SDS011;2357;47.316;-1.348;2022-10-16T04:56:34;4.83;;;2.30;;
4686;SDS011;2357;47.316;-1.348;2022-10-16T04:59:08;1.90;;;1.80;;
4686;SDS011;2357;47.316;-1.348;2022-10-16T05:01:34;2.40;;;2.30;;
4686;SDS011;2357;47.316;-1.348;2022-10-16T05:03:59;1.83;;;1.73;;
4686;SDS011;2357;47.316;-1.348;2022-10-16T05:06:25;2.87;;;2.30;;
4686;SDS011;2357;47.316;-1.348;2022-10-16T05:08:51;6.63;;;3.57;;
4686;SDS011;2357;47.316;-1.348;2022-10-16T05:11:16;2.20;;;2.00;;
4686;SDS011;2357;47.316;-1.348;2022-10-16T05:13:42;2.73;;;2.40;;
4686;SDS011;2357;47.316;-1.348;2022-10-16T05:16:07;6.40;;;2.50;;
4686;SDS011;2357;47.316;-1.348;2022-10-16T05:18:33;5.60;;;1.80;;
4686;SDS011;2357;47.316;-1.348;2022-10-16T05:20:59;6.00;;;1.90;;
4686;SDS011;2357;47.316;-1.348;2022-10-16T05:23:24;1.73;;;1.63;;
4686;SDS011;2357;47.316;-1.348;2022-10-16T05:25:56;4.50;;;2.43;;
4686;SDS011;2357;47.316;-1.348;2022-10-16T05:28:32;4.63;;;2.63;;
4686;SDS011;2357;47.316;-1.348;2022-10-16T05:30:57;1.80;;;1.70;;
4686;SDS011;2357;47.316;-1.348;2022-10-16T05:33:24;4.43;;;2.47;;
4686;SDS011;2357;47.316;-1.348;2022-10-16T05:35:50;2.63;;;2.43;;
4686;SDS011;2357;47.316;-1.348;2022-10-16T05:38:17;2.87;;;2.00;;
4686;SDS011;2357;47.316;-1.348;2022-10-16T05:40:43;3.33;;;2.57;;
4686;SDS011;2357;47.316;-1.348;2022-10-16T05:43:15;3.77;;;2.47;;
4686;SDS011;2357;47.316;-1.348;2022-10-16T05:45:40;2.60;;;2.40;;
4686;SDS011;2357;47.316;-1.348;2022-10-16T05:48:06;2.90;;;2.27;;
4686;SDS011;2357;47.316;-1.348;2022-10-16T05:50:31;7.03;;;2.60;;
4686;SDS011;2357;47.316;-1.348;2022-10-16T05:52:57;2.77;;;2.57;;
4686;SDS011;2357;47.316;-1.348;2022-10-16T05:55:23;2.90;;;2.70;;
4686;SDS011;2357;47.316;-1.348;2022-10-16T05:57:48;2.43;;;2.33;;
4686;SDS011;2357;47.316;-1.348;2022-10-16T06:00:14;3.37;;;2.60;;
4686;SDS011;2357;47.316;-1.348;2022-10-16T06:02:39;2.67;;;2.57;;
4686;SDS011;2357;47.316;-1.348;2022-10-16T06:05:05;3.67;;;2.67;;
4686;SDS011;2357;47.316;-1.348;2022-10-16T06:07:33;2.83;;;2.50;;
4686;SDS011;2357;47.316;-1.348;2022-10-16T06:10:00;12.00;;;3.17;;
4686;SDS011;2357;47.316;-1.348;2022-10-16T06:12:26;3.30;;;2.73;;
4686;SDS011;2357;47.316;-1.348;2022-10-16T06:14:52;2.73;;;2.53;;
4686;SDS011;2357;47.316;-1.348;2022-10-16T06:17:17;3.30;;;3.10;;
4686;SDS011;2357;47.316;-1.348;2022-10-16T06:19:43;2.40;;;2.30;;
4686;SDS011;2357;47.316;-1.348;2022-10-16T06:22:09;2.90;;;2.80;;
4686;SDS011;2357;47.316;-1.348;2022-10-16T06:24:34;4.13;;;3.40;;
4686;SDS011;2357;47.316;-1.348;2022-10-16T06:27:00;2.93;;;2.73;;
4686;SDS011;2357;47.316;-1.348;2022-10-16T06:29:25;5.10;;;3.00;;
4686;SDS011;2357;47.316;-1.348;2022-10-16T06:31:51;4.03;;;3.33;;
4686;SDS011;2357;47.316;-1.348;2022-10-16T06:34:17;3.03;;;2.83;;
4686;SDS011;2357;47.316;-1.348;2022-10-16T06:36:43;3.33;;;3.13;;
4686;SDS011;2357;47.316;-1.348;2022-10-16T06:39:09;3.30;;;3.00;;
4686;SDS011;2357;47.316;-1.348;2022-10-16T06:41:34;3.43;;;3.23;;
4686;SDS011;2357;47.316;-1.348;2022-10-16T06:44:00;3.37;;;3.07;;
4686;SDS011;2357;47.316;-1.348;2022-10-16T06:46:26;3.30;;;3.10;;
4686;SDS011;2357;47.316;-1.348;2022-10-16T06:48:52;3.47;;;3.27;;
4686;SDS011;2357;47.316;-1.348;2022-10-16T06:51:21;3.67;;;3.43;;
4686;SDS011;2357;47.316;-1.348;2022-10-16T06:53:49;6.30;;;3.80;;
4686;SDS011;2357;47.316;-1.348;2022-10-16T06:56:17;3.50;;;3.30;;
4686;SDS011;2357;47.316;-1.348;2022-10-16T06:58:44;3.10;;;2.90;;
4686;SDS011;2357;47.316;-1.348;2022-10-16T07:01:11;7.20;;;3.10;;
4686;SDS011;2357;47.316;-1.348;2022-10-16T07:03:38;3.57;;;3.27;;
4686;SDS011;2357;47.316;-1.348;2022-10-16T07:06:05;3.00;;;2.80;;
4686;SDS011;2357;47.316;-1.348;2022-10-16T07:08:32;3.20;;;3.00;;
4686;SDS011;2357;47.316;-1.348;2022-10-16T07:11:00;3.40;;;3.20;;
4686;SDS011;2357;47.316;-1.348;2022-10-16T07:13:26;4.20;;;3.20;;
4686;SDS011;2357;47.316;-1.348;2022-10-16T07:15:52;8.77;;;3.40;;
4686;SDS011;2357;47.316;-1.348;2022-10-16T07:18:18;4.50;;;3.60;;
4686;SDS011;2357;47.316;-1.348;2022-10-16T07:20:43;4.73;;;3.80;;
4686;SDS011;2357;47.316;-1.348;2022-10-16T07:23:09;4.07;;;3.77;;
4686;SDS011;2357;47.316;-1.348;2022-10-16T07:25:35;3.77;;;3.00;;
4686;SDS011;2357;47.316;-1.348;2022-10-16T07:28:00;3.90;;;3.63;;
4686;SDS011;2357;47.316;-1.348;2022-10-16T07:30:26;5.23;;;3.43;;
4686;SDS011;2357;47.316;-1.348;2022-10-16T07:32:51;4.70;;;3.60;;
4686;SDS011;2357;47.316;-1.348;2022-10-16T07:35:17;4.00;;;3.60;;
4686;SDS011;2357;47.316;-1.348;2022-10-16T07:37:45;3.00;;;2.80;;
4686;SDS011;2357;47.316;-1.348;2022-10-16T07:40:11;3.77;;;3.30;;
4686;SDS011;2357;47.316;-1.348;2022-10-16T07:42:37;3.63;;;2.93;;
4686;SDS011;2357;47.316;-1.348;2022-10-16T07:45:03;3.13;;;2.83;;
4686;SDS011;2357;47.316;-1.348;2022-10-16T07:47:29;5.37;;;2.70;;
4686;SDS011;2357;47.316;-1.348;2022-10-16T07:49:55;3.10;;;2.90;;
4686;SDS011;2357;47.316;-1.348;2022-10-16T07:52:21;2.77;;;2.67;;
4686;SDS011;2357;47.316;-1.348;2022-10-16T07:54:46;2.77;;;2.57;;
4686;SDS011;2357;47.316;-1.348;2022-10-16T07:57:12;3.07;;;2.77;;
4686;SDS011;2357;47.316;-1.348;2022-10-16T07:59:44;2.20;;;2.10;;
4686;SDS011;2357;47.316;-1.348;2022-10-16T08:02:10;2.70;;;2.50;;
4686;SDS011;2357;47.316;-1.348;2022-10-16T08:04:36;2.07;;;1.97;;
4686;SDS011;2357;47.316;-1.348;2022-10-16T08:07:01;6.13;;;2.60;;
4686;SDS011;2357;47.316;-1.348;2022-10-16T08:09:27;3.87;;;2.10;;
4686;SDS011;2357;47.316;-1.348;2022-10-16T08:11:52;2.17;;;1.70;;
4686;SDS011;2357;47.316;-1.348;2022-10-16T08:14:18;1.97;;;1.87;;
4686;SDS011;2357;47.316;-1.348;2022-10-16T08:16:43;5.63;;;2.33;;
4686;SDS011;2357;47.316;-1.348;2022-10-16T08:19:09;2.50;;;1.77;;
4686;SDS011;2357;47.316;-1.348;2022-10-16T08:21:35;1.73;;;1.63;;
4686;SDS011;2357;47.316;-1.348;2022-10-16T08:24:00;5.57;;;2.23;;
4686;SDS011;2357;47.316;-1.348;2022-10-16T08:26:26;2.50;;;2.30;;
4686;SDS011;2357;47.316;-1.348;2022-10-16T08:28:52;2.30;;;1.77;;
4686;SDS011;2357;47.316;-1.348;2022-10-16T08:31:17;2.30;;;2.10;;
4686;SDS011;2357;47.316;-1.348;2022-10-16T08:33:44;3.93;;;2.00;;
4686;SDS011;2357;47.316;-1.348;2022-10-16T08:36:11;3.23;;;1.90;;
4686;SDS011;2357;47.316;-1.348;2022-10-16T08:38:38;3.30;;;2.07;;
4686;SDS011;2357;47.316;-1.348;2022-10-16T08:43:54;2.17;;;1.77;;
4686;SDS011;2357;47.316;-1.348;2022-10-16T08:49:16;2.33;;;2.00;;
4686;SDS011;2357;47.316;-1.348;2022-10-16T08:51:43;4.37;;;2.03;;
4686;SDS011;2357;47.316;-1.348;2022-10-16T08:56:53;3.53;;;2.20;;
4686;SDS011;2357;47.316;-1.348;2022-10-16T08:59:20;4.13;;;2.20;;
4686;SDS011;2357;47.316;-1.348;2022-10-16T09:01:46;3.73;;;1.70;;
4686;SDS011;2357;47.316;-1.348;2022-10-16T09:04:27;9.17;;;2.43;;
4686;SDS011;2357;47.316;-1.348;2022-10-16T09:07:23;1.93;;;1.30;;
4686;SDS011;2357;47.316;-1.348;2022-10-16T09:10:07;14.23;;;1.80;;
4686;SDS011;2357;47.316;-1.348;2022-10-16T09:12:54;1.33;;;1.33;;
4686;SDS011;2357;47.316;-1.348;2022-10-16T09:16:01;8.67;;;1.50;;
4686;SDS011;2357;47.316;-1.348;2022-10-16T09:21:16;2.73;;;1.43;;
4686;SDS011;2357;47.316;-1.348;2022-10-16T09:23:57;1.10;;;1.00;;
4686;SDS011;2357;47.316;-1.348;2022-10-16T09:26:25;1.87;;;1.30;;
4686;SDS011;2357;47.316;-1.348;2022-10-16T09:28:52;1.43;;;1.33;;
4686;SDS011;2357;47.316;-1.348;2022-10-16T09:31:19;1.73;;;0.80;;
4686;SDS011;2357;47.316;-1.348;2022-10-16T09:33:48;2.20;;;0.90;;
4686;SDS011;2357;47.316;-1.348;2022-10-16T09:36:18;0.90;;;0.90;;
4686;SDS011;2357;47.316;-1.348;2022-10-16T09:38:45;1.70;;;0.90;;
4686;SDS011;2357;47.316;-1.348;2022-10-16T09:43:47;1.23;;;0.73;;
4686;SDS011;2357;47.316;-1.348;2022-10-16T09:46:21;4.63;;;0.80;;
4686;SDS011;2357;47.316;-1.348;2022-10-16T09:48:58;1.83;;;0.90;;
4686;SDS011;2357;47.316;-1.348;2022-10-16T09:51:30;1.53;;;0.67;;
4686;SDS011;2357;47.316;-1.348;2022-10-16T09:56:34;1.40;;;1.30;;
4686;SDS011;2357;47.316;-1.348;2022-10-16T09:59:14;0.73;;;0.73;;
4686;SDS011;2357;47.316;-1.348;2022-10-16T10:01:43;0.60;;;0.60;;
4686;SDS011;2357;47.316;-1.348;2022-10-16T10:04:11;0.60;;;0.60;;
4686;SDS011;2357;47.316;-1.348;2022-10-16T10:06:40;0.67;;;0.60;;
4686;SDS011;2357;47.316;-1.348;2022-10-16T10:11:55;1.17;;;0.50;;
4686;SDS011;2357;47.316;-1.348;2022-10-16T10:14:35;0.80;;;0.63;;
4686;SDS011;2357;47.316;-1.348;2022-10-16T10:19:37;0.60;;;0.60;;
4686;SDS011;2357;47.316;-1.348;2022-10-16T10:33:27;3.73;;;0.60;;
4686;SDS011;2357;47.316;-1.348;2022-10-16T10:35:56;0.73;;;0.60;;
4686;SDS011;2357;47.316;-1.348;2022-10-16T10:41:23;0.60;;;0.60;;
4686;SDS011;2357;47.316;-1.348;2022-10-16T10:46:50;0.80;;;0.50;;
4686;SDS011;2357;47.316;-1.348;2022-10-16T10:54:56;0.40;;;0.40;;
4686;SDS011;2357;47.316;-1.348;2022-10-16T10:58:06;1.40;;;0.70;;
4686;SDS011;2357;47.316;-1.348;2022-10-16T11:08:20;0.50;;;0.50;;
4686;SDS011;2357;47.316;-1.348;2022-10-16T11:11:02;0.50;;;0.50;;
4686;SDS011;2357;47.316;-1.348;2022-10-16T11:13:37;0.60;;;0.50;;
4686;SDS011;2357;47.316;-1.348;2022-10-16T11:16:29;5.03;;;0.50;;
4686;SDS011;2357;47.316;-1.348;2022-10-16T11:19:10;0.40;;;0.40;;
4686;SDS011;2357;47.316;-1.348;2022-10-16T11:21:53;2.47;;;0.50;;
4686;SDS011;2357;47.316;-1.348;2022-10-16T11:24:39;2.83;;;0.50;;
4686;SDS011;2357;47.316;-1.348;2022-10-16T11:27:12;0.40;;;0.40;;
4686;SDS011;2357;47.316;-1.348;2022-10-16T11:29:45;0.80;;;0.60;;
4686;SDS011;2357;47.316;-1.348;2022-10-16T11:32:25;0.80;;;0.50;;
4686;SDS011;2357;47.316;-1.348;2022-10-16T11:35:20;0.40;;;0.40;;
4686;SDS011;2357;47.316;-1.348;2022-10-16T11:38:13;0.50;;;0.50;;
4686;SDS011;2357;47.316;-1.348;2022-10-16T11:41:00;1.03;;;0.60;;
4686;SDS011;2357;47.316;-1.348;2022-10-16T11:43:33;1.60;;;0.40;;
4686;SDS011;2357;47.316;-1.348;2022-10-16T11:46:24;0.77;;;0.50;;
4686;SDS011;2357;47.316;-1.348;2022-10-16T11:49:11;0.50;;;0.50;;
4686;SDS011;2357;47.316;-1.348;2022-10-16T11:51:45;0.60;;;0.50;;
4686;SDS011;2357;47.316;-1.348;2022-10-16T11:57:12;0.60;;;0.60;;
4686;SDS011;2357;47.316;-1.348;2022-10-16T12:07:36;0.60;;;0.60;;
4686;SDS011;2357;47.316;-1.348;2022-10-16T12:10:10;0.50;;;0.50;;
4686;SDS011;2357;47.316;-1.348;2022-10-16T12:12:50;0.60;;;0.60;;
4686;SDS011;2357;47.316;-1.348;2022-10-16T12:17:50;0.50;;;0.50;;
4686;SDS011;2357;47.316;-1.348;2022-10-16T12:22:49;1.13;;;0.60;;
4686;SDS011;2357;47.316;-1.348;2022-10-16T12:25:23;1.17;;;0.50;;
4686;SDS011;2357;47.316;-1.348;2022-10-16T12:28:00;0.70;;;0.70;;
4686;SDS011;2357;47.316;-1.348;2022-10-16T12:30:28;0.60;;;0.60;;
4686;SDS011;2357;47.316;-1.348;2022-10-16T12:32:56;1.43;;;0.87;;
4686;SDS011;2357;47.316;-1.348;2022-10-16T12:35:32;1.13;;;0.70;;
4686;SDS011;2357;47.316;-1.348;2022-10-16T12:38:06;0.67;;;0.67;;
4686;SDS011;2357;47.316;-1.348;2022-10-16T12:40:37;2.10;;;0.60;;
4686;SDS011;2357;47.316;-1.348;2022-10-16T12:43:22;0.87;;;0.70;;
4686;SDS011;2357;47.316;-1.348;2022-10-16T12:46:35;0.50;;;0.50;;
4686;SDS011;2357;47.316;-1.348;2022-10-16T12:48:41;0.50;;;0.50;;
4686;SDS011;2357;47.316;-1.348;2022-10-16T12:51:19;1.03;;;0.93;;
4686;SDS011;2357;47.316;-1.348;2022-10-16T12:54:11;0.60;;;0.50;;
4686;SDS011;2357;47.316;-1.348;2022-10-16T13:10:13;0.67;;;0.67;;
4686;SDS011;2357;47.316;-1.348;2022-10-16T13:15:41;0.60;;;0.60;;
4686;SDS011;2357;47.316;-1.348;2022-10-16T13:18:29;0.50;;;0.50;;
4686;SDS011;2357;47.316;-1.348;2022-10-16T13:29:12;0.77;;;0.50;;
4686;SDS011;2357;47.316;-1.348;2022-10-16T13:31:38;0.43;;;0.43;;
4686;SDS011;2357;47.316;-1.348;2022-10-16T13:34:05;0.57;;;0.57;;
4686;SDS011;2357;47.316;-1.348;2022-10-16T13:36:44;0.60;;;0.60;;
4686;SDS011;2357;47.316;-1.348;2022-10-16T13:41:39;0.60;;;0.60;;
4686;SDS011;2357;47.316;-1.348;2022-10-16T13:44:05;0.70;;;0.70;;
4686;SDS011;2357;47.316;-1.348;2022-10-16T13:46:42;0.60;;;0.60;;
4686;SDS011;2357;47.316;-1.348;2022-10-16T13:49:16;0.60;;;0.60;;
4686;SDS011;2357;47.316;-1.348;2022-10-16T13:51:58;0.53;;;0.50;;
4686;SDS011;2357;47.316;-1.348;2022-10-16T13:54:25;0.70;;;0.70;;
4686;SDS011;2357;47.316;-1.348;2022-10-16T13:56:53;1.40;;;0.50;;
4686;SDS011;2357;47.316;-1.348;2022-10-16T14:01:53;0.60;;;0.60;;
4686;SDS011;2357;47.316;-1.348;2022-10-16T14:04:22;0.73;;;0.60;;
4686;SDS011;2357;47.316;-1.348;2022-10-16T14:06:49;0.67;;;0.60;;
4686;SDS011;2357;47.316;-1.348;2022-10-16T14:11:51;0.80;;;0.63;;
4686;SDS011;2357;47.316;-1.348;2022-10-16T14:14:26;0.70;;;0.50;;
4686;SDS011;2357;47.316;-1.348;2022-10-16T14:16:57;1.80;;;0.50;;
4686;SDS011;2357;47.316;-1.348;2022-10-16T14:19:24;0.50;;;0.50;;
4686;SDS011;2357;47.316;-1.348;2022-10-16T14:21:52;0.57;;;0.57;;
4686;SDS011;2357;47.316;-1.348;2022-10-16T14:26:56;2.90;;;0.60;;
4686;SDS011;2357;47.316;-1.348;2022-10-16T14:29:22;3.00;;;1.10;;
4686;SDS011;2357;47.316;-1.348;2022-10-16T14:32:02;0.60;;;0.60;;
4686;SDS011;2357;47.316;-1.348;2022-10-16T14:34:38;1.13;;;0.80;;
4686;SDS011;2357;47.316;-1.348;2022-10-16T14:39:33;0.60;;;0.60;;
4686;SDS011;2357;47.316;-1.348;2022-10-16T14:42:00;0.83;;;0.80;;
4686;SDS011;2357;47.316;-1.348;2022-10-16T14:44:31;1.57;;;0.60;;
4686;SDS011;2357;47.316;-1.348;2022-10-16T14:46:58;0.70;;;0.70;;
4686;SDS011;2357;47.316;-1.348;2022-10-16T14:49:33;2.50;;;0.80;;
4686;SDS011;2357;47.316;-1.348;2022-10-16T14:51:59;7.13;;;0.97;;
4686;SDS011;2357;47.316;-1.348;2022-10-16T14:54:25;2.80;;;1.00;;
4686;SDS011;2357;47.316;-1.348;2022-10-16T14:56:54;4.00;;;1.20;;
4686;SDS011;2357;47.316;-1.348;2022-10-16T14:59:27;0.93;;;0.83;;
4686;SDS011;2357;47.316;-1.348;2022-10-16T15:04:53;1.20;;;1.10;;
4686;SDS011;2357;47.316;-1.348;2022-10-16T15:07:19;1.10;;;1.10;;
4686;SDS011;2357;47.316;-1.348;2022-10-16T15:09:45;2.40;;;1.00;;
4686;SDS011;2357;47.316;-1.348;2022-10-16T15:12:10;2.53;;;1.20;;
4686;SDS011;2357;47.316;-1.348;2022-10-16T15:14:36;4.73;;;1.50;;
4686;SDS011;2357;47.316;-1.348;2022-10-16T15:17:02;3.43;;;1.60;;
4686;SDS011;2357;47.316;-1.348;2022-10-16T15:19:28;1.33;;;1.30;;
4686;SDS011;2357;47.316;-1.348;2022-10-16T15:21:53;2.63;;;1.17;;
4686;SDS011;2357;47.316;-1.348;2022-10-16T15:24:19;8.80;;;1.10;;
4686;SDS011;2357;47.316;-1.348;2022-10-16T15:26:45;1.60;;;1.40;;
4686;SDS011;2357;47.316;-1.348;2022-10-16T15:29:14;2.40;;;1.40;;
4686;SDS011;2357;47.316;-1.348;2022-10-16T15:31:40;1.30;;;1.30;;
4686;SDS011;2357;47.316;-1.348;2022-10-16T15:34:12;3.17;;;1.10;;
4686;SDS011;2357;47.316;-1.348;2022-10-16T15:36:38;6.10;;;2.33;;
4686;SDS011;2357;47.316;-1.348;2022-10-16T15:39:04;2.40;;;1.57;;
4686;SDS011;2357;47.316;-1.348;2022-10-16T15:41:36;1.80;;;1.70;;
4686;SDS011;2357;47.316;-1.348;2022-10-16T15:44:02;10.73;;;2.50;;
4686;SDS011;2357;47.316;-1.348;2022-10-16T15:46:28;2.97;;;1.67;;
4686;SDS011;2357;47.316;-1.348;2022-10-16T15:48:56;1.60;;;1.50;;
4686;SDS011;2357;47.316;-1.348;2022-10-16T15:51:23;2.70;;;1.40;;
4686;SDS011;2357;47.316;-1.348;2022-10-16T15:53:49;1.60;;;1.50;;
4686;SDS011;2357;47.316;-1.348;2022-10-16T15:56:16;1.60;;;1.40;;
4686;SDS011;2357;47.316;-1.348;2022-10-16T15:58:42;2.37;;;2.17;;
4686;SDS011;2357;47.316;-1.348;2022-10-16T16:01:09;1.40;;;1.30;;
4686;SDS011;2357;47.316;-1.348;2022-10-16T16:03:35;2.70;;;1.40;;
4686;SDS011;2357;47.316;-1.348;2022-10-16T16:06:05;6.97;;;1.70;;
4686;SDS011;2357;47.316;-1.348;2022-10-16T16:08:33;1.97;;;1.87;;
4686;SDS011;2357;47.316;-1.348;2022-10-16T16:10:59;8.80;;;2.17;;
4686;SDS011;2357;47.316;-1.348;2022-10-16T16:13:26;4.60;;;1.93;;
4686;SDS011;2357;47.316;-1.348;2022-10-16T16:15:52;2.10;;;2.00;;
4686;SDS011;2357;47.316;-1.348;2022-10-16T16:18:18;7.80;;;1.63;;
4686;SDS011;2357;47.316;-1.348;2022-10-16T16:20:44;10.13;;;2.03;;
4686;SDS011;2357;47.316;-1.348;2022-10-16T16:23:09;1.93;;;1.70;;
4686;SDS011;2357;47.316;-1.348;2022-10-16T16:25:35;2.60;;;2.20;;
4686;SDS011;2357;47.316;-1.348;2022-10-16T16:28:01;3.30;;;2.10;;
4686;SDS011;2357;47.316;-1.348;2022-10-16T16:30:27;1.87;;;1.77;;
4686;SDS011;2357;47.316;-1.348;2022-10-16T16:32:52;4.10;;;2.10;;
4686;SDS011;2357;47.316;-1.348;2022-10-16T16:35:18;5.30;;;2.37;;
4686;SDS011;2357;47.316;-1.348;2022-10-16T16:37:43;5.00;;;2.00;;
4686;SDS011;2357;47.316;-1.348;2022-10-16T16:40:09;10.43;;;1.83;;
4686;SDS011;2357;47.316;-1.348;2022-10-16T16:42:35;1.63;;;1.47;;
4686;SDS011;2357;47.316;-1.348;2022-10-16T16:45:00;1.87;;;1.77;;
4686;SDS011;2357;47.316;-1.348;2022-10-16T16:47:26;3.40;;;1.65;;
4686;SDS011;2357;47.316;-1.348;2022-10-16T16:49:51;4.23;;;1.77;;
4686;SDS011;2357;47.316;-1.348;2022-10-16T16:52:17;4.23;;;2.20;;
4686;SDS011;2357;47.316;-1.348;2022-10-16T16:54:43;3.43;;;1.37;;
4686;SDS011;2357;47.316;-1.348;2022-10-16T16:57:16;2.07;;;1.90;;
4686;SDS011;2357;47.316;-1.348;2022-10-16T16:59:42;3.80;;;2.17;;
4686;SDS011;2357;47.316;-1.348;2022-10-16T17:02:07;4.13;;;1.90;;
4686;SDS011;2357;47.316;-1.348;2022-10-16T17:04:34;3.80;;;2.70;;
4686;SDS011;2357;47.316;-1.348;2022-10-16T17:07:00;4.50;;;1.93;;
4686;SDS011;2357;47.316;-1.348;2022-10-16T17:09:25;2.50;;;1.90;;